createdAt,value
2022-11-15T04:09:55.478Z,3.6
2022-11-15T04:10:55.681Z,1.7
2022-11-15T04:11:56.014Z,1.8
2022-11-15T04:12:56.522Z,2
2022-11-15T04:13:56.726Z,2.4
2022-11-15T04:14:57.043Z,1.5
2022-11-15T04:15:57.576Z,1.7
2022-11-15T04:16:57.803Z,1.8
2022-11-15T04:17:58.911Z,1.5
2022-11-15T04:18:58.296Z,1.9
2022-11-15T04:19:58.847Z,3
2022-11-15T04:20:58.977Z,1.8
2022-11-15T04:21:59.480Z,1.4
2022-11-15T04:23:00.245Z,1.5
2022-11-15T04:23:59.870Z,2.2
2022-11-15T04:24:59.848Z,1.6
2022-11-15T04:26:05.712Z,1.6
2022-11-15T04:27:03.744Z,1.8
2022-11-15T04:28:04.903Z,1.7
2022-11-15T04:29:04.806Z,2.4
2022-11-15T04:30:06.027Z,1.7
2022-11-15T04:31:06.030Z,1.9
2022-11-15T04:32:08.085Z,2
2022-11-15T04:33:06.145Z,2.2
2022-11-15T04:34:06.682Z,2
2022-11-15T04:35:07.296Z,1.6
2022-11-15T04:36:07.727Z,1.7
2022-11-15T04:37:07.398Z,1.7
2022-11-15T04:38:09.264Z,2
2022-11-15T04:39:08.855Z,2
2022-11-15T04:40:09.680Z,4.6
2022-11-15T04:41:08.862Z,3.2
2022-11-15T04:42:09.388Z,3.4
2022-11-15T04:43:09.532Z,4.3
2022-11-15T04:44:09.936Z,2.2
2022-11-15T04:45:11.369Z,1.6
2022-11-15T04:46:10.638Z,1.5
2022-11-15T04:47:10.745Z,2.4
2022-11-15T04:48:11.172Z,1.9
2022-11-15T04:49:11.590Z,1.5
2022-11-15T04:50:12.110Z,1.9
2022-11-15T04:51:12.511Z,1.9
2022-11-15T04:52:12.623Z,2.9
2022-11-15T04:53:12.833Z,2.9
2022-11-15T04:54:13.464Z,2.1
2022-11-15T04:55:14.992Z,2.5
2022-11-15T04:56:14.591Z,2.7
2022-11-15T04:57:14.198Z,2.6
2022-11-15T04:58:14.819Z,1.7
2022-11-15T04:59:15.025Z,1.8
2022-11-15T05:00:17.496Z,1.6
2022-11-15T05:01:16.651Z,1.4
2022-11-15T05:02:16.072Z,2.1
2022-11-15T05:03:16.279Z,1.7
2022-11-15T05:04:16.801Z,1.8
2022-11-15T05:05:17.105Z,3
2022-11-15T05:06:18.174Z,1.7
2022-11-15T05:07:18.467Z,3.5
2022-11-15T05:08:18.797Z,3.2
2022-11-15T05:09:20.244Z,3.7
2022-11-15T05:10:19.738Z,3.3
2022-11-15T05:11:19.932Z,2.5
2022-11-15T05:12:20.096Z,2.4
2022-11-15T05:13:20.759Z,1.7
2022-11-15T05:14:20.897Z,3.1
2022-11-15T05:15:21.197Z,1.9
2022-11-15T05:16:21.642Z,1.6
2022-11-15T05:17:21.720Z,4.2
2022-11-15T05:18:23.916Z,2
2022-11-15T05:19:22.739Z,2
2022-11-15T05:20:22.972Z,1.6
2022-11-15T05:21:24.237Z,2.4
2022-11-15T05:22:23.588Z,2.3
2022-11-15T05:23:24.015Z,2.5
2022-11-15T05:24:24.400Z,2.3
2022-11-15T05:25:25.279Z,2.7
2022-11-15T05:26:24.897Z,2.4
2022-11-15T05:27:25.567Z,2.5
2022-11-15T05:28:25.912Z,2.2
2022-11-15T05:29:25.998Z,2.8
2022-11-15T05:30:26.553Z,2
2022-11-15T05:31:28.166Z,2.3
2022-11-15T05:32:27.040Z,2.4
2022-11-15T05:33:28.509Z,2.7
2022-11-15T05:34:28.170Z,2.3
2022-11-15T05:35:33.492Z,2.5
2022-11-15T05:37:33.116Z,4.4
2022-11-15T05:38:34.828Z,3.2
2022-11-15T05:39:33.877Z,2.8
2022-11-15T05:40:34.856Z,2.9
2022-11-15T05:41:45.534Z,2.2
2022-11-15T05:42:39.291Z,2.5
2022-11-15T05:43:40.822Z,2.8
2022-11-15T05:44:43.893Z,2.7
2022-11-15T05:45:43.059Z,4.1
2022-11-15T05:46:44.256Z,2.5
2022-11-15T05:47:43.437Z,2.4
2022-11-15T05:48:49.342Z,2.5
2022-11-15T05:49:50.917Z,2.3
2022-11-15T05:50:50.686Z,2.5
2022-11-15T05:51:51.563Z,2.8
2022-11-15T05:52:50.853Z,2.2
2022-11-15T05:53:51.450Z,3.3
2022-11-15T05:54:52.373Z,4.7
2022-11-15T05:55:51.136Z,5
2022-11-15T05:56:51.556Z,4
2022-11-15T05:57:51.448Z,3.9
2022-11-15T05:58:58.167Z,2.2
2022-11-15T05:59:53.097Z,3
2022-11-15T06:00:52.899Z,2.1
2022-11-15T06:01:53.083Z,3.1
2022-11-15T06:02:53.471Z,2
2022-11-15T06:03:53.738Z,3.1
2022-11-15T06:04:54.159Z,2.5
2022-11-15T06:05:54.570Z,2.8
2022-11-15T06:06:54.861Z,2.5
2022-11-15T06:07:59.411Z,2.5
2022-11-15T06:08:57.574Z,3.4
2022-11-15T06:09:57.975Z,3.9
2022-11-15T06:10:58.090Z,2.5
2022-11-15T06:11:58.510Z,2.9
2022-11-15T06:13:02.819Z,2.3
2022-11-15T06:14:00.678Z,2.1
2022-11-15T06:15:01.024Z,2.4
2022-11-15T06:16:02.220Z,3.2
2022-11-15T06:17:03.241Z,2.7
2022-11-15T06:18:02.746Z,3.1
2022-11-15T06:19:03.182Z,4.8
2022-11-15T06:20:04.092Z,2.8
2022-11-15T06:21:04.399Z,2.2
2022-11-15T06:22:04.409Z,3.1
2022-11-15T06:23:06.154Z,3
2022-11-15T06:24:06.366Z,3.5
2022-11-15T06:25:06.277Z,2.8
2022-11-15T06:26:06.390Z,2.9
2022-11-15T06:27:06.082Z,2.4
2022-11-15T06:28:06.393Z,3
2022-11-15T06:29:07.028Z,2.7
2022-11-15T06:30:08.047Z,3.5
2022-11-15T06:31:09.483Z,3.1
2022-11-15T06:32:07.853Z,2.7
2022-11-15T06:33:08.272Z,3.1
2022-11-15T06:34:08.690Z,3.3
2022-11-15T06:35:09.414Z,3.4
2022-11-15T06:36:17.243Z,23.7
2022-11-15T06:37:10.755Z,19.5
2022-11-15T06:38:12.634Z,8.5
2022-11-15T06:39:11.789Z,5.1
2022-11-15T06:40:13.036Z,5.5
2022-11-15T06:41:13.557Z,3.9
2022-11-15T06:42:12.535Z,5.2
2022-11-15T06:43:12.937Z,2.9
2022-11-15T06:44:13.264Z,2.9
2022-11-15T06:45:13.576Z,4.5
2022-11-15T06:46:14.095Z,2.7
2022-11-15T06:47:14.096Z,2.6
2022-11-15T06:48:15.646Z,3.1
2022-11-15T06:49:15.148Z,3.1
2022-11-15T06:50:15.863Z,3
2022-11-15T06:51:15.565Z,3
2022-11-15T06:52:15.878Z,2.8
2022-11-15T06:53:16.295Z,2.3
2022-11-15T06:54:16.810Z,2.4
2022-11-15T06:55:17.335Z,2.9
2022-11-15T06:56:17.335Z,2.3
2022-11-15T06:57:17.856Z,2.3
2022-11-15T06:58:18.376Z,2.2
2022-11-15T06:59:18.680Z,2.5
2022-11-15T07:00:21.355Z,2.4
2022-11-15T07:01:19.468Z,2.1
2022-11-15T07:02:19.627Z,2.5
2022-11-15T07:03:20.260Z,2
2022-11-15T07:04:20.563Z,2.3
2022-11-15T07:05:20.984Z,2.7
2022-11-15T07:06:21.205Z,8.3
2022-11-15T07:07:21.628Z,8
2022-11-15T07:08:22.022Z,5.3
2022-11-15T07:09:22.229Z,4.2
2022-11-15T07:10:23.265Z,2.8
2022-11-15T07:11:23.173Z,2.8
2022-11-15T07:12:23.278Z,3.5
2022-11-15T07:13:26.665Z,2.7
2022-11-15T07:14:24.624Z,2.5
2022-11-15T07:15:27.295Z,2.5
2022-11-15T07:16:25.494Z,4.1
2022-11-15T07:17:25.865Z,3.2
2022-11-15T07:18:25.971Z,3.9
2022-11-15T07:19:26.394Z,3.5
2022-11-15T07:20:26.930Z,2.9
2022-11-15T07:21:27.826Z,2.7
2022-11-15T07:22:27.436Z,3.2
2022-11-15T07:23:27.799Z,2.6
2022-11-15T07:24:28.168Z,2.7
2022-11-15T07:25:28.683Z,3.3
2022-11-15T07:26:28.900Z,2.8
2022-11-15T07:27:29.248Z,3.1
2022-11-15T07:28:30.137Z,2.4
2022-11-15T07:29:30.040Z,2.5
2022-11-15T07:30:30.566Z,2.7
2022-11-15T07:31:30.567Z,2.8
2022-11-15T07:32:30.985Z,2.5
2022-11-15T07:33:32.045Z,2.7
2022-11-15T07:34:31.625Z,2.7
2022-11-15T07:35:31.863Z,2.7
2022-11-15T07:36:32.557Z,2.8
2022-11-15T07:37:32.658Z,6.8
2022-11-15T07:38:38.025Z,22.3
2022-11-15T07:39:34.317Z,5.1
2022-11-15T07:40:34.512Z,4.5
2022-11-15T07:41:35.035Z,4.6
2022-11-15T07:42:35.358Z,3.7
2022-11-15T07:43:35.765Z,4
2022-11-15T07:44:35.772Z,4
2022-11-15T07:45:42.847Z,3
2022-11-15T07:46:41.025Z,3
2022-11-15T07:47:41.446Z,3.9
2022-11-15T07:48:45.482Z,3.8
2022-11-15T07:49:43.897Z,3.9
2022-11-15T07:50:44.428Z,3.8
2022-11-15T07:51:45.647Z,4.5
2022-11-15T07:52:44.940Z,3.2
2022-11-15T07:53:45.665Z,4.2
2022-11-15T07:54:45.575Z,3.8
2022-11-15T07:55:45.989Z,4
2022-11-15T07:56:46.436Z,3.9
2022-11-15T07:57:46.922Z,3.8
2022-11-15T07:58:47.847Z,3.6
2022-11-15T07:59:47.347Z,3.6
2022-11-15T08:00:47.763Z,3.8
2022-11-15T08:01:48.472Z,3.5
2022-11-15T08:02:48.583Z,3.5
2022-11-15T08:03:48.711Z,4.7
2022-11-15T08:04:49.329Z,4.8
2022-11-15T08:05:52.612Z,4.4
2022-11-15T08:06:50.798Z,4.9
2022-11-15T08:07:52.719Z,5.1
2022-11-15T08:08:51.392Z,13.3
2022-11-15T08:09:51.810Z,7.2
2022-11-15T08:10:52.438Z,5.1
2022-11-15T08:11:52.754Z,4.8
2022-11-15T08:13:03.394Z,3.9
2022-11-15T08:13:56.547Z,5.6
2022-11-15T08:14:57.372Z,4
2022-11-15T08:16:02.098Z,4.7
2022-11-15T08:17:00.153Z,4.5
2022-11-15T08:18:03.537Z,5.6
2022-11-15T08:19:01.601Z,5.8
2022-11-15T08:20:01.913Z,4.4
2022-11-15T08:21:03.159Z,4.4
2022-11-15T08:22:02.739Z,5
2022-11-15T08:23:05.008Z,4.7
2022-11-15T08:24:03.476Z,4.3
2022-11-15T08:25:03.788Z,4.6
2022-11-15T08:26:05.540Z,4.7
2022-11-15T08:27:04.662Z,4.6
2022-11-15T08:28:07.198Z,4.7
2022-11-15T08:29:05.142Z,4.2
2022-11-15T08:30:06.484Z,5.4
2022-11-15T08:31:06.602Z,4.1
2022-11-15T08:32:06.601Z,6
2022-11-15T08:33:06.807Z,4.5
2022-11-15T08:34:07.842Z,4.8
2022-11-15T08:35:08.274Z,4.4
2022-11-15T08:36:08.584Z,4.5
2022-11-15T08:37:08.283Z,4.7
2022-11-15T08:38:08.501Z,4.5
2022-11-15T08:39:12.720Z,4.4
2022-11-15T08:40:11.561Z,5.2
2022-11-15T08:41:15.500Z,3.7
2022-11-15T08:42:18.549Z,4.2
2022-11-15T08:43:17.942Z,4.4
2022-11-15T08:44:18.052Z,4.4
2022-11-15T08:45:18.791Z,4.4
2022-11-15T08:46:18.986Z,4.9
2022-11-15T08:47:19.406Z,4.8
2022-11-15T08:48:19.956Z,4.2
2022-11-15T08:49:20.342Z,4.4
2022-11-15T08:50:21.685Z,4.8
2022-11-15T08:51:21.168Z,4.3
2022-11-15T08:52:21.385Z,4.1
2022-11-15T08:53:21.387Z,4.6
2022-11-15T08:54:21.812Z,4.1
2022-11-15T08:55:24.564Z,4.7
2022-11-15T08:56:23.041Z,4.4
2022-11-15T08:57:23.552Z,4.6
2022-11-15T08:58:24.073Z,5.1
2022-11-15T08:59:24.489Z,6.5
2022-11-15T09:00:24.799Z,7.7
2022-11-15T09:01:24.919Z,11.3
2022-11-15T09:02:25.329Z,5.2
2022-11-15T09:03:26.688Z,4.4
2022-11-15T09:04:26.073Z,4.7
2022-11-15T09:05:26.779Z,3.3
2022-11-15T09:06:26.791Z,4
2022-11-15T09:07:27.142Z,4.8
2022-11-15T09:08:48.366Z,3.7
2022-11-15T09:09:31.532Z,3.5
2022-11-15T09:10:32.037Z,3.6
2022-11-15T09:11:32.258Z,3.6
2022-11-15T09:12:32.679Z,3.9
2022-11-15T09:13:32.874Z,4.2
2022-11-15T09:14:33.515Z,4.6
2022-11-15T09:15:33.605Z,6
2022-11-15T09:16:34.047Z,4.1
2022-11-15T09:17:34.443Z,3.4
2022-11-15T09:18:35.110Z,3.7
2022-11-15T09:19:35.170Z,4
2022-11-15T09:20:35.376Z,3.8
2022-11-15T09:21:35.899Z,4.8
2022-11-15T09:22:36.723Z,4.6
2022-11-15T09:23:36.529Z,3.4
2022-11-15T09:24:36.953Z,4.4
2022-11-15T09:25:37.261Z,4
2022-11-15T09:26:37.679Z,3.7
2022-11-15T09:27:37.994Z,4.1
2022-11-15T09:28:38.920Z,5.2
2022-11-15T09:29:38.819Z,3.8
2022-11-15T09:30:39.025Z,3.1
2022-11-15T09:31:39.445Z,4.1
2022-11-15T09:32:39.969Z,4.5
2022-11-15T09:33:40.277Z,4
2022-11-15T09:34:40.409Z,3.7
2022-11-15T09:35:40.616Z,3.9
2022-11-15T09:36:41.069Z,3.6
2022-11-15T09:37:41.385Z,3.8
2022-11-15T09:38:41.962Z,4.3
2022-11-15T09:39:43.498Z,3.9
2022-11-15T09:40:42.685Z,3.1
2022-11-15T09:49:02.804Z,4.2
2022-11-15T09:50:02.504Z,4
2022-11-15T09:51:01.394Z,2.9
2022-11-15T09:52:01.929Z,3.3
2022-11-15T09:53:02.007Z,3.2
2022-11-15T09:55:02.842Z,2.9
2022-11-15T10:04:20.219Z,2.8
2022-11-15T10:05:24.211Z,3.2
2022-11-15T10:09:31.815Z,3.6
2022-11-15T10:11:37.871Z,3.2
2022-11-15T10:12:32.958Z,2.6
2022-11-15T10:13:38.501Z,2.8
2022-11-15T10:14:40.053Z,2.7
2022-11-15T10:15:38.452Z,2.9
2022-11-15T10:24:00.160Z,3
2022-11-15T10:26:06.808Z,9.6
2022-11-15T10:29:08.502Z,8.1
2022-11-15T10:32:14.247Z,11.2
2022-11-15T10:36:22.669Z,4.3
2022-11-15T10:38:23.505Z,3.2
2022-11-15T10:39:24.342Z,3.8
2022-11-15T10:40:25.774Z,3.7
2022-11-15T10:42:31.228Z,2.9
2022-11-15T10:43:29.168Z,2.9
2022-11-15T10:44:33.907Z,2.6
2022-11-15T10:45:34.923Z,3.7
2022-11-15T10:46:46.037Z,3.4
2022-11-15T10:47:39.516Z,4.3
2022-11-15T10:48:38.016Z,3.8
2022-11-15T10:49:38.421Z,3.3
2022-11-15T10:50:39.555Z,3
2022-11-15T10:52:48.286Z,3.2
2022-11-15T10:53:47.897Z,2.6
2022-11-15T10:55:51.065Z,4.1
2022-11-15T10:57:56.408Z,2.8
2022-11-15T10:58:57.535Z,6.2
2022-11-15T10:59:59.276Z,2.1
2022-11-15T11:00:57.738Z,2.5
2022-11-15T11:01:58.099Z,2.1
2022-11-15T11:03:06.382Z,2.2
2022-11-15T11:04:03.296Z,2.9
2022-11-15T11:05:02.084Z,2.2
2022-11-15T11:07:02.607Z,2.4
2022-11-15T11:09:07.554Z,2.4
2022-11-15T11:11:10.714Z,1.8
2022-11-15T11:12:14.000Z,2.4
2022-11-15T11:15:19.760Z,1.9
2022-11-15T11:44:34.915Z,1.8
2022-11-15T11:49:53.886Z,1.4
2022-11-15T11:50:44.044Z,1.4
2022-11-15T11:54:02.414Z,1.4
2022-11-15T11:56:58.835Z,1.2
2022-11-15T12:13:39.895Z,1.2
2022-11-15T12:16:47.088Z,1.2
2022-11-15T12:17:49.773Z,0.8
2022-11-15T12:19:50.485Z,1
2022-11-15T12:26:10.178Z,0.8
2022-11-15T12:30:15.845Z,0.9
2022-11-15T12:31:19.948Z,0.8
2022-11-15T12:41:38.647Z,0.7
2022-11-15T12:42:42.654Z,0.9
2022-11-15T12:43:42.856Z,1
2022-11-15T12:47:48.621Z,1
2022-11-15T12:49:54.580Z,1
2022-11-15T12:53:56.442Z,0.7
2022-11-15T12:54:59.022Z,1.3
2022-11-15T12:59:08.917Z,0.5
2022-11-15T13:01:09.830Z,0.7
2022-11-15T13:10:35.875Z,1
2022-11-15T13:16:45.553Z,0.6
2022-11-15T13:18:55.350Z,1.8
2022-11-15T13:19:50.778Z,1.4
2022-11-15T13:20:48.632Z,2.9
2022-11-15T13:21:51.725Z,2.3
2022-11-15T13:23:57.167Z,1.7
2022-11-15T13:24:56.449Z,1.3
2022-11-15T13:27:00.227Z,0.7
2022-11-15T13:28:07.619Z,0.5
2022-11-15T13:29:00.990Z,0.6
2022-11-15T13:37:32.106Z,1.3
2022-11-15T13:38:34.436Z,1.6
2022-11-15T13:39:35.045Z,1.3
2022-11-15T13:40:37.196Z,1.1
2022-11-15T13:41:33.616Z,2.2
2022-11-15T13:42:31.683Z,1.4
2022-11-15T13:43:37.016Z,1.2
2022-11-15T13:44:35.379Z,1.3
2022-11-15T13:45:35.587Z,1.5
2022-11-15T13:46:36.111Z,1.3
2022-11-15T13:47:36.115Z,2.7
2022-11-15T13:48:36.848Z,2.2
2022-11-15T13:49:37.150Z,1.4
2022-11-15T13:50:40.162Z,1.3
2022-11-15T13:52:46.898Z,0.8
2022-11-15T13:53:49.789Z,0.9
2022-11-15T13:55:51.731Z,1.6
2022-11-15T13:58:04.337Z,1.7
2022-11-15T13:58:57.585Z,1.5
2022-11-15T14:00:04.563Z,0.6
2022-11-15T14:01:05.383Z,0.5
2022-11-15T14:02:13.883Z,2.3
2022-11-15T14:04:19.442Z,2.9
2022-11-15T14:05:23.735Z,3.5
2022-11-15T14:06:19.240Z,3.7
2022-11-15T14:07:25.735Z,4.7
2022-11-15T14:08:27.265Z,5
2022-11-15T14:11:27.055Z,4
2022-11-15T14:12:35.471Z,2
2022-11-15T14:13:32.613Z,3.1
2022-11-15T14:14:31.682Z,3.3
2022-11-15T14:15:34.889Z,1.2
2022-11-15T14:17:39.586Z,1
2022-11-15T14:19:41.867Z,1.1
2022-11-15T14:20:41.861Z,1.1
2022-11-15T14:23:45.360Z,3.1
2022-11-15T14:26:53.571Z,2.5
2022-11-15T14:28:54.314Z,1.7
2022-11-15T14:29:55.534Z,1.9
2022-11-15T14:30:57.812Z,2
2022-11-15T14:32:59.860Z,1.4
2022-11-15T14:34:00.172Z,2.2
2022-11-15T14:35:02.355Z,0.7
2022-11-15T14:36:06.742Z,1.1
2022-11-15T14:37:04.698Z,2.3
2022-11-15T14:38:04.810Z,1.5
2022-11-15T14:39:05.462Z,0.5
2022-11-15T14:40:07.518Z,0.6
2022-11-15T14:41:06.678Z,0.6
2022-11-15T14:42:10.774Z,0.4
2022-11-15T14:43:13.550Z,2.6
2022-11-15T14:44:12.837Z,1
2022-11-15T14:45:20.829Z,0.9
2022-11-15T14:46:13.770Z,0.8
2022-11-15T14:47:14.596Z,1.4
2022-11-15T14:48:14.500Z,0.8
2022-11-15T14:49:15.430Z,1.4
2022-11-15T14:50:20.654Z,2.1
2022-11-15T14:51:19.747Z,1.3
2022-11-15T14:53:20.374Z,1.9
2022-11-15T14:54:20.512Z,1.2
2022-11-15T14:55:30.107Z,0.8
2022-11-15T14:56:22.948Z,0.4
2022-11-15T14:57:23.767Z,0.4
2022-11-15T14:58:23.898Z,0.3
2022-11-15T14:59:24.199Z,0.3
2022-11-15T15:00:24.937Z,0.4
2022-11-15T15:01:28.628Z,0.5
2022-11-15T15:02:28.624Z,0.4
2022-11-15T15:03:26.985Z,0.4
2022-11-15T15:04:27.407Z,0.4
2022-11-15T15:05:38.478Z,0.5
2022-11-15T15:06:31.789Z,0.3
2022-11-15T15:07:32.137Z,0.5
2022-11-15T15:08:32.449Z,1.9
2022-11-15T15:09:32.773Z,0.4
2022-11-15T15:10:47.001Z,0.4
2022-11-15T15:11:35.132Z,0.6
2022-11-15T15:12:35.225Z,0.5
2022-11-15T15:13:35.654Z,1.2
2022-11-15T15:14:36.274Z,0.3
2022-11-15T15:15:39.053Z,0.5
2022-11-15T15:16:37.018Z,0.3
2022-11-15T15:17:37.418Z,0.5
2022-11-15T15:18:37.737Z,0.4
2022-11-15T15:19:38.357Z,0.3
2022-11-15T15:20:40.931Z,0.6
2022-11-15T15:21:39.699Z,0.4
2022-11-15T15:22:39.610Z,0.7
2022-11-15T15:23:39.608Z,0.6
2022-11-15T15:24:39.922Z,1.8
2022-11-15T15:25:40.863Z,0.7
2022-11-15T15:26:41.269Z,0.9
2022-11-15T15:27:40.969Z,0.8
2022-11-15T15:28:41.697Z,1.1
2022-11-15T15:29:41.704Z,0.6
2022-11-15T15:30:42.420Z,0.4
2022-11-15T15:31:42.433Z,1.9
2022-11-15T15:32:42.841Z,0.7
2022-11-15T15:33:43.263Z,2.6
2022-11-15T15:34:43.677Z,2.6
2022-11-15T15:35:44.219Z,1.1
2022-11-15T15:36:44.307Z,0.9
2022-11-15T15:37:45.644Z,0.8
2022-11-15T15:38:45.135Z,2
2022-11-15T15:39:45.354Z,1.2
2022-11-15T15:40:46.081Z,0.4
2022-11-15T15:41:46.077Z,0.3
2022-11-15T15:42:46.415Z,0.3
2022-11-15T15:43:46.707Z,0.4
2022-11-15T15:44:47.435Z,0.4
2022-11-15T15:45:47.586Z,1.1
2022-11-15T15:46:47.860Z,0.4
2022-11-15T15:47:48.676Z,0.5
2022-11-15T15:48:49.099Z,0.5
2022-11-15T15:49:49.635Z,0.6
2022-11-15T15:50:49.414Z,0.4
2022-11-15T15:51:49.524Z,0.4
2022-11-15T15:52:50.764Z,0.5
2022-11-15T15:53:50.076Z,0.4
2022-11-15T15:54:50.673Z,0.4
2022-11-15T15:55:50.987Z,0.5
2022-11-15T15:56:56.024Z,0.6
2022-11-15T15:57:55.306Z,0.6
2022-11-15T15:58:54.788Z,1.2
2022-11-15T15:59:54.906Z,0.7
2022-11-15T16:00:55.474Z,1
2022-11-15T16:01:55.842Z,0.7
2022-11-15T16:02:56.461Z,0.7
2022-11-15T16:03:56.572Z,3.7
2022-11-15T16:04:56.990Z,0.9
2022-11-15T16:05:57.206Z,0.6
2022-11-15T16:07:01.737Z,0.3
2022-11-15T16:07:59.864Z,1.1
2022-11-15T16:09:18.780Z,0.7
2022-11-15T16:10:02.976Z,1.3
2022-11-15T16:11:02.462Z,0.6
2022-11-15T16:12:02.970Z,2
2022-11-15T16:13:03.321Z,0.9
2022-11-15T16:14:03.805Z,0.7
2022-11-15T16:15:05.044Z,0.7
2022-11-15T16:16:04.536Z,0.8
2022-11-15T16:17:05.457Z,3
2022-11-15T16:18:06.280Z,0.8
2022-11-15T16:19:06.097Z,1.1
2022-11-15T16:20:06.401Z,0.8
2022-11-15T16:21:06.208Z,1.2
2022-11-15T16:22:06.417Z,2.8
2022-11-15T16:23:10.105Z,1.2
2022-11-15T16:24:08.752Z,1.9
2022-11-15T16:25:09.608Z,2.2
2022-11-15T16:29:17.015Z,0.7
2022-11-15T16:30:19.059Z,0.4
2022-11-15T16:31:17.746Z,0.7
2022-11-15T16:32:18.250Z,0.4
2022-11-15T16:33:18.263Z,2.4
2022-11-15T16:34:18.578Z,4.4
2022-11-15T16:35:19.294Z,5.8
2022-11-15T16:37:25.060Z,0.6
2022-11-15T16:38:23.424Z,0.5
2022-11-15T16:39:23.520Z,0.6
2022-11-15T16:40:30.595Z,1.2
2022-11-15T16:41:28.355Z,0.9
2022-11-15T16:42:28.772Z,0.6
2022-11-15T16:43:29.186Z,0.7
2022-11-15T16:44:30.113Z,0.7
2022-11-15T16:45:30.294Z,0.8
2022-11-15T16:46:30.221Z,1.3
2022-11-15T16:47:30.544Z,2.2
2022-11-15T16:48:31.485Z,0.9
2022-11-15T16:49:31.384Z,1
2022-11-15T16:50:35.885Z,1.8
2022-11-15T16:51:33.955Z,1.6
2022-11-15T16:52:34.057Z,1.9
2022-11-15T16:53:34.470Z,1.4
2022-11-15T16:54:34.783Z,0.8
2022-11-15T16:55:35.304Z,1.1
2022-11-15T16:56:35.722Z,1.1
2022-11-15T16:57:35.832Z,2.1
2022-11-15T16:58:38.393Z,1.8
2022-11-15T16:59:38.488Z,1.3
2022-11-15T17:00:36.961Z,1.3
2022-11-15T17:01:39.131Z,1.3
2022-11-15T17:02:37.603Z,0.9
2022-11-15T17:03:37.812Z,0.6
2022-11-15T17:04:38.441Z,1.7
2022-11-15T17:05:38.551Z,0.9
2022-11-15T17:06:43.364Z,0.6
2022-11-15T17:07:41.632Z,0.9
2022-11-15T17:08:42.044Z,0.7
2022-11-15T17:09:42.045Z,0.4
2022-11-15T17:10:42.567Z,1.1
2022-11-15T17:11:43.710Z,0.4
2022-11-15T17:12:43.199Z,0.5
2022-11-15T17:13:43.521Z,0.6
2022-11-15T17:14:43.519Z,1.1
2022-11-15T17:15:44.245Z,0.5
2022-11-15T17:16:44.966Z,1.9
2022-11-15T17:17:44.876Z,0.5
2022-11-15T17:18:45.495Z,0.6
2022-11-15T17:19:45.503Z,0.5
2022-11-15T17:20:45.570Z,0.4
2022-11-15T17:21:47.460Z,0.4
2022-11-15T17:22:46.230Z,0.9
2022-11-15T17:23:47.470Z,1.7
2022-11-15T17:24:47.174Z,2.5
2022-11-15T17:25:47.600Z,3
2022-11-15T17:26:47.689Z,3.4
2022-11-15T17:27:50.989Z,1.5
2022-11-15T17:28:49.237Z,1.2
2022-11-15T17:29:49.451Z,1
2022-11-15T17:30:49.665Z,0.8
2022-11-15T17:31:50.191Z,0.8
2022-11-15T17:32:50.295Z,1.4
2022-11-15T17:33:50.811Z,0.8
2022-11-15T17:34:51.226Z,1.4
2022-11-15T17:36:52.483Z,0.9
2022-11-15T17:37:52.792Z,1.2
2022-11-15T17:38:57.968Z,1.2
2022-11-15T17:39:57.313Z,1.3
2022-11-15T17:42:02.648Z,0.9
2022-11-15T17:43:03.188Z,0.6
2022-11-15T17:44:03.499Z,0.3
2022-11-15T17:45:09.623Z,1.1
2022-11-15T17:46:13.342Z,0.5
2022-11-15T17:47:11.582Z,0.6
2022-11-15T17:48:13.224Z,0.5
2022-11-15T17:49:12.118Z,0.4
2022-11-15T17:50:12.523Z,0.3
2022-11-15T17:51:15.909Z,0.6
2022-11-15T17:52:13.869Z,0.6
2022-11-15T17:53:14.281Z,1.1
2022-11-15T17:54:14.701Z,0.6
2022-11-15T17:55:15.115Z,4.5
2022-11-15T17:56:17.783Z,2.8
2022-11-15T17:57:15.842Z,3.7
2022-11-15T17:58:16.159Z,2.7
2022-11-15T17:59:21.207Z,1.5
2022-11-15T18:00:20.581Z,3.2
2022-11-15T18:01:26.031Z,2.5
2022-11-15T18:02:24.385Z,1
2022-11-15T18:03:24.692Z,0.9
2022-11-15T18:04:25.113Z,0.7
2022-11-15T18:05:25.419Z,0.6
2022-11-15T18:06:25.942Z,1.7
2022-11-15T18:07:26.285Z,0.7
2022-11-15T18:08:26.460Z,1.4
2022-11-15T18:09:26.514Z,0.6
2022-11-15T18:10:27.089Z,0.6
2022-11-15T18:12:27.452Z,0.3
2022-11-15T18:13:27.727Z,0.7
2022-11-15T18:14:28.342Z,0.3
2022-11-15T18:15:28.358Z,0.5
2022-11-15T18:16:31.530Z,0.6
2022-11-15T18:17:29.700Z,0.7
2022-11-15T18:18:31.872Z,0.8
2022-11-15T18:19:30.235Z,0.6
2022-11-15T18:20:30.435Z,0.4
2022-11-15T18:21:32.593Z,1.3
2022-11-15T18:22:31.314Z,0.5
2022-11-15T18:23:32.276Z,0.7
2022-11-15T18:24:34.147Z,0.5
2022-11-15T18:25:32.207Z,0.6
2022-11-15T18:26:32.638Z,0.6
2022-11-15T18:27:33.040Z,0.9
2022-11-15T18:28:38.171Z,0.7
2022-11-15T18:29:36.131Z,0.4
2022-11-15T18:30:39.199Z,0.3
2022-11-15T18:31:37.055Z,0.7
2022-11-15T18:32:37.591Z,0.3
2022-11-15T18:33:37.891Z,0.4
2022-11-15T18:34:38.202Z,0.9
2022-11-15T18:35:38.528Z,1.2
2022-11-15T18:36:38.966Z,1.1
2022-11-15T18:37:39.358Z,0.5
2022-11-15T18:38:39.566Z,0.8
2022-11-15T18:39:39.982Z,0.4
2022-11-15T18:40:40.189Z,1.3
2022-11-15T18:41:41.125Z,2.1
2022-11-15T18:42:40.865Z,1.7
2022-11-15T18:43:41.759Z,2.2
2022-11-15T18:44:41.561Z,3.5
2022-11-15T18:45:42.168Z,1
2022-11-15T18:46:42.909Z,0.5
2022-11-15T18:47:42.490Z,0.8
2022-11-15T18:48:44.557Z,0.4
2022-11-15T18:49:43.333Z,2.1
2022-11-15T18:50:43.642Z,2
2022-11-15T18:51:44.383Z,1.6
2022-11-15T18:52:44.367Z,1
2022-11-15T18:53:47.550Z,0.9
2022-11-15T18:54:45.813Z,1
2022-11-15T18:55:45.932Z,1.9
2022-11-15T18:56:46.654Z,0.5
2022-11-15T18:57:46.765Z,0.5
2022-11-15T18:58:50.973Z,0.3
2022-11-15T18:59:49.232Z,0.3
2022-11-15T19:00:49.474Z,0.4
2022-11-15T19:01:49.751Z,0.4
2022-11-15T19:02:50.170Z,0.4
2022-11-15T19:03:57.246Z,0.3
2022-11-15T19:04:55.404Z,0.4
2022-11-15T19:06:02.382Z,0.3
2022-11-15T19:07:01.112Z,0.4
2022-11-15T19:08:01.159Z,0.3
2022-11-15T19:09:01.363Z,0.3
2022-11-15T19:10:01.686Z,0.8
2022-11-15T19:12:07.233Z,0.4
2022-11-15T19:13:06.728Z,0.3
2022-11-15T19:14:12.769Z,0.4
2022-11-15T19:15:11.443Z,0.4
2022-11-15T19:16:13.397Z,0.8
2022-11-15T19:17:11.764Z,0.7
2022-11-15T19:18:12.186Z,0.7
2022-11-15T19:19:20.599Z,0.7
2022-11-15T19:20:13.631Z,0.7
2022-11-15T19:21:16.183Z,0.7
2022-11-15T19:22:14.567Z,1
2022-11-15T19:23:14.688Z,0.9
2022-11-15T19:24:15.289Z,0.4
2022-11-15T19:25:15.295Z,0.4
2022-11-15T19:26:16.730Z,0.4
2022-11-15T19:28:16.134Z,0.7
2022-11-15T19:29:16.965Z,0.6
2022-11-15T19:30:17.481Z,0.5
2022-11-15T19:31:18.306Z,0.5
2022-11-15T19:32:17.495Z,0.8
2022-11-15T19:33:18.111Z,0.6
2022-11-15T19:34:18.533Z,1.8
2022-11-15T19:35:18.546Z,1.3
2022-11-15T19:36:22.439Z,1.3
2022-11-15T19:37:20.297Z,0.8
2022-11-15T19:38:20.814Z,0.8
2022-11-15T19:39:21.229Z,0.9
2022-11-15T19:40:21.436Z,1
2022-11-15T19:41:23.400Z,0.7
2022-11-15T19:42:22.066Z,0.8
2022-11-15T19:43:22.282Z,0.8
2022-11-15T19:44:22.801Z,0.7
2022-11-15T19:45:22.899Z,0.9
2022-11-15T19:46:24.242Z,1
2022-11-15T19:47:23.744Z,1.3
2022-11-15T19:48:24.372Z,1.3
2022-11-15T19:49:24.492Z,0.9
2022-11-15T19:50:24.785Z,0.9
2022-11-15T19:51:27.756Z,1.2
2022-11-15T19:52:25.713Z,1.3
2022-11-15T19:53:29.096Z,1.3
2022-11-15T19:54:26.442Z,1.1
2022-11-15T19:55:26.687Z,1.1
2022-11-15T19:56:27.009Z,1.2
2022-11-15T19:57:27.493Z,1.4
2022-11-15T19:58:28.477Z,1.4
2022-11-15T19:59:28.326Z,1.3
2022-11-15T20:00:28.432Z,1.5
2022-11-15T20:01:31.224Z,1.4
2022-11-15T20:02:29.891Z,1.9
2022-11-15T20:03:34.942Z,2
2022-11-15T20:04:33.384Z,1.4
2022-11-15T20:05:33.594Z,2.2
2022-11-15T20:06:37.382Z,1.4
2022-11-15T20:07:35.187Z,1.4
2022-11-15T20:08:36.682Z,1.7
2022-11-15T20:09:35.972Z,1.4
2022-11-15T20:10:36.791Z,1.4
2022-11-15T20:11:36.803Z,2.7
2022-11-15T20:12:36.909Z,1.7
2022-11-15T20:13:37.231Z,2.2
2022-11-15T20:14:37.736Z,1.3
2022-11-15T20:15:37.960Z,1.2
2022-11-15T20:16:38.492Z,1.6
2022-11-15T20:17:38.686Z,1.8
2022-11-15T20:18:38.889Z,1.1
2022-11-15T20:19:39.428Z,1.4
2022-11-15T20:20:39.841Z,1.4
2022-11-15T20:21:40.143Z,1.4
2022-11-15T20:22:40.459Z,1.4
2022-11-15T20:23:41.276Z,1.4
2022-11-15T20:24:41.291Z,1.4
2022-11-15T20:25:45.202Z,1.3
2022-11-15T20:26:43.134Z,1.4
2022-11-15T20:27:43.261Z,1.9
2022-11-15T20:28:44.291Z,1.8
2022-11-15T20:29:45.117Z,1.4
2022-11-15T20:30:45.833Z,1.6
2022-11-15T20:31:44.929Z,2.1
2022-11-15T20:32:45.034Z,1.8
2022-11-15T20:33:45.745Z,2.3
2022-11-15T20:34:50.123Z,1.6
2022-11-15T20:35:50.893Z,2.2
2022-11-15T20:36:51.197Z,2.3
2022-11-15T20:37:51.620Z,2.1
2022-11-15T20:38:51.733Z,2.6
2022-11-15T20:39:52.450Z,2.4
2022-11-15T20:40:56.129Z,2.3
2022-11-15T20:41:57.598Z,3.4
2022-11-15T20:42:57.961Z,2.3
2022-11-15T20:43:58.415Z,2.4
2022-11-15T20:44:58.727Z,2.3
2022-11-15T20:45:59.143Z,2.4
2022-11-15T20:46:59.453Z,2.4
2022-11-15T20:47:59.664Z,2.7
2022-11-15T20:49:00.109Z,2.7
2022-11-15T20:50:20.734Z,2.4
2022-11-15T20:52:04.401Z,3
2022-11-15T20:53:04.109Z,3.5
2022-11-15T20:54:04.879Z,2.9
2022-11-15T20:55:05.553Z,3.2
2022-11-15T20:56:08.218Z,3.2
2022-11-15T20:57:06.285Z,2.7
2022-11-15T20:58:06.388Z,3.5
2022-11-15T20:59:07.112Z,3
2022-11-15T21:00:08.344Z,3.3
2022-11-15T21:01:09.202Z,3.9
2022-11-15T21:02:08.074Z,4
2022-11-15T21:03:08.271Z,3.4
2022-11-15T21:04:08.420Z,4.3
2022-11-15T21:05:09.907Z,4
2022-11-15T21:06:09.609Z,3.9
2022-11-15T21:07:09.687Z,3.2
2022-11-15T21:08:11.063Z,4
2022-11-15T21:09:10.249Z,3.9
2022-11-15T21:10:11.381Z,4.3
2022-11-15T21:11:12.922Z,4.7